Terminal Aerodrome Forecast
Issued by NWS

Home | Current Version | Previous Version | Text Only | Print | Product List | Glossary On
Versions: 1 2 3 4 5 6 7 8 9 10 11 12 13 14
941
FTUS45 KTFX 261128
TAFBZN
TAF
KBZN 261128Z 2612/2712 VRB05KT P6SM SCT080
     FM261400 VRB05KT P6SM BKN070
     FM261900 VRB05KT P6SM VCSH SCT050 BKN070
     FM270100 VRB05KT P6SM FEW050 SCT100=

USA.gov is the U.S. government's official web portal to all federal, state and local government web resources and services.